Bernadotte, Illinois
Current Conditions -  °F | °C
As of 4:15 PM on Sunday 25 Jan 2015 (Local Time) from KMQB Reporting Station
Overcast Overcast  
Wind Chill: 17°   Ceiling: 2200
Heat Index: 30°   Visibility: 10mi
Dew Point: 27°   Wind: 21mph
Humidity: 87%   Direction: 20°NNE
Pressure: 29.91"   Gusts: 26mph
Location:  40.364°N, 90.2765°W
Report Text: KMQB 252215Z AUTO 02018G23KT 10SM SCT013 OVC022 M01/M03 A2991 RMK AO2 T10101029
Loading
Personal Weather Stations






























Interactive Weather Map New forecast layout! Learn more

10-Day Weather Forecast

Advertisements
Track Severe Weather on mobile